Lookout, Wyoming
Current Conditions -  °F | °C
As of 7:53 PM on Friday 24 Oct 2014 (Local Time) from KLAR Reporting Station
Clear Clear  
Wind Chill: 44°   Ceiling: Unl
Heat Index: 49°   Visibility: 10mi
Dew Point: 21°   Wind: 13mph
Humidity: 33%   Direction: 220°SW
Pressure: 30.29"   Gusts: NA
Location:  41.5395°N, 105.861°W
Report Text: KLAR 250153Z AUTO 22011KT 10SM CLR 09/M06 A3029 RMK AO2 SLP193 T00941061
Loading
Personal Weather Stations






























Interactive Weather Map New forecast layout! Learn more

10-Day Weather Forecast

Advertisements
Track Severe Weather on mobile